Time;durP1;ratioP1;P1;durP2;ratioP2;P2;SDS_P1;SDS_P2;PMS_P1;PMS_P2;Temp;Humidity;BMP_temperature;BMP_pressure;BME280_temperature;BME280_humidity;BME280_pressure;Samples;Min_cycle;Max_cycle;Signal;HPM_P1;HPM_P2
2022/09/08 00:01:13;;;;;;;12.27;3.17;;;17.40;87.30;;;;;;5065750;28;20062;-75
2022/09/08 00:03:40;;;;;;;9.45;2.88;;;17.40;87.30;;;;;;5067363;28;20029;-75
2022/09/08 00:06:11;;;;;;;11.05;2.47;;;17.30;87.20;;;;;;5067544;28;20037;-73
2022/09/08 00:08:39;;;;;;;17.02;2.30;;;17.30;87.20;;;;;;5070171;28;20494;-75
2022/09/08 00:11:08;;;;;;;13.73;3.15;;;17.40;87.20;;;;;;5069932;28;20147;-76
2022/09/08 00:13:38;;;;;;;10.63;2.45;;;17.30;87.20;;;;;;5068124;28;20071;-75
2022/09/08 00:16:07;;;;;;;7.80;2.75;;;17.30;87.10;;;;;;5067396;28;20085;-75
2022/09/08 00:18:34;;;;;;;12.07;2.80;;;17.30;87.20;;;;;;5066627;28;20086;-73
2022/09/08 00:21:01;;;;;;;9.90;2.72;;;17.30;87.10;;;;;;5068456;28;20051;-72
2022/09/08 00:23:28;;;;;;;25.10;5.47;;;17.30;87.10;;;;;;5066835;28;20021;-72
2022/09/08 00:25:54;;;;;;;14.77;3.67;;;17.30;87.10;;;;;;5068936;28;20385;-73
2022/09/08 00:28:21;;;;;;;9.18;2.30;;;17.30;87.20;;;;;;5070605;28;20028;-72
2022/09/08 00:30:47;;;;;;;13.25;2.83;;;17.30;87.20;;;;;;5068312;28;20032;-72
2022/09/08 00:33:14;;;;;;;9.57;2.30;;;17.20;87.20;;;;;;5067722;28;20040;-71
2022/09/08 00:35:44;;;;;;;11.05;3.45;;;17.30;87.30;;;;;;5067555;28;20024;-73
2022/09/08 00:38:12;;;;;;;14.20;3.38;;;17.20;87.20;;;;;;5070655;28;20031;-71
2022/09/08 00:40:45;;;;;;;19.73;4.07;;;17.30;87.20;;;;;;5065678;28;20035;-73
2022/09/08 00:43:46;;;;;;;10.40;2.60;;;17.20;87.10;;;;;;5065414;28;20020;-72
2022/09/08 00:46:31;;;;;;;13.70;4.10;;;17.20;87.20;;;;;;5067062;28;20157;-72
2022/09/08 00:49:16;;;;;;;8.77;3.03;;;17.20;87.20;;;;;;5068638;28;20111;-70
2022/09/08 00:51:57;;;;;;;16.85;4.05;;;17.20;87.90;;;;;;5068688;28;20113;-71
2022/09/08 00:54:25;;;;;;;11.85;2.83;;;17.20;87.20;;;;;;5072325;28;20387;-72
2022/09/08 00:56:55;;;;;;;9.70;2.83;;;17.20;87.30;;;;;;5071744;28;20042;-70
2022/09/08 00:59:24;;;;;;;11.45;2.63;;;17.20;87.20;;;;;;5072556;28;20024;-70
2022/09/08 01:01:52;;;;;;;15.05;3.25;;;17.10;87.10;;;;;;5071516;28;20056;-71
2022/09/08 01:04:19;;;;;;;11.52;3.65;;;17.10;87.20;;;;;;5073823;28;20052;-74
2022/09/08 01:12:49;;;;;;;8.82;2.40;;;17.10;87.10;;;;;;5072639;28;20109;-71
2022/09/08 01:15:20;;;;;;;18.85;2.75;;;17.10;87.00;;;;;;5072778;28;20371;-73
2022/09/08 01:17:48;;;;;;;10.60;2.67;;;17.10;87.00;;;;;;5071805;28;20110;-71
2022/09/08 01:20:19;;;;;;;11.48;3.22;;;17.10;87.00;;;;;;5070277;28;20085;-72
2022/09/08 01:23:00;;;;;;;10.52;3.40;;;17.00;86.90;;;;;;5070318;28;20032;-73
2022/09/08 01:25:53;;;;;;;12.38;2.30;;;17.10;87.00;;;;;;5071994;28;20111;-71
2022/09/08 01:28:33;;;;;;;9.73;2.58;;;17.10;87.00;;;;;;5071650;28;20418;-72
2022/09/08 01:31:02;;;;;;;12.60;3.35;;;17.00;86.90;;;;;;5071764;28;20557;-72
2022/09/08 01:33:28;;;;;;;14.55;3.17;;;17.00;87.00;;;;;;5072449;28;20039;-72
2022/09/08 01:35:55;;;;;;;18.17;3.08;;;17.00;87.00;;;;;;5071081;28;20032;-71
2022/09/08 01:38:22;;;;;;;11.65;2.40;;;17.00;87.10;;;;;;5070031;28;20060;-72
2022/09/08 01:40:48;;;;;;;8.20;2.58;;;17.00;87.20;;;;;;5071150;28;20039;-72
2022/09/08 01:43:15;;;;;;;8.43;2.92;;;17.00;87.10;;;;;;5070574;28;20020;-72
2022/09/08 01:45:41;;;;;;;8.45;2.50;;;17.00;87.00;;;;;;5068354;28;20798;-71
2022/09/08 01:48:08;;;;;;;12.75;2.60;;;17.00;87.00;;;;;;5071393;28;20430;-71
2022/09/08 01:50:35;;;;;;;7.53;2.63;;;17.00;87.00;;;;;;5070407;28;20098;-72
2022/09/08 01:53:02;;;;;;;15.20;2.72;;;17.00;87.10;;;;;;5072544;28;20453;-71
2022/09/08 01:55:29;;;;;;;10.60;2.90;;;17.00;87.00;;;;;;5070700;28;20111;-71
2022/09/08 01:57:56;;;;;;;14.18;4.10;;;17.00;87.10;;;;;;5069388;28;20035;-73
2022/09/08 02:00:22;;;;;;;7.70;2.63;;;16.90;87.00;;;;;;5070352;28;20036;-71
2022/09/08 02:02:49;;;;;;;16.20;4.30;;;16.90;86.90;;;;;;5071155;28;20078;-71
2022/09/08 02:05:15;;;;;;;19.17;4.00;;;16.90;86.90;;;;;;5070117;28;20031;-71
2022/09/08 02:07:42;;;;;;;12.82;3.45;;;16.90;86.90;;;;;;5070409;28;20020;-74
2022/09/08 02:10:08;;;;;;;8.68;2.30;;;16.90;87.00;;;;;;5068742;28;20036;-72
2022/09/08 02:12:35;;;;;;;7.50;2.50;;;16.90;87.00;;;;;;5070437;28;20376;-72
2022/09/08 02:15:01;;;;;;;13.13;2.75;;;16.90;87.00;;;;;;5070140;28;20025;-72
2022/09/08 02:17:30;;;;;;;10.90;2.47;;;17.00;87.00;;;;;;5070142;28;20449;-73
2022/09/08 02:19:56;;;;;;;9.05;2.45;;;16.90;86.90;;;;;;5067772;28;20016;-72
2022/09/08 02:22:23;;;;;;;8.00;2.80;;;17.00;87.00;;;;;;5069528;28;20060;-73
2022/09/08 02:24:49;;;;;;;9.38;2.20;;;17.00;86.90;;;;;;5070446;28;20107;-72
2022/09/08 02:27:16;;;;;;;10.07;3.28;;;16.90;86.70;;;;;;5072130;28;20064;-72
2022/09/08 02:29:42;;;;;;;7.55;2.00;;;16.90;86.70;;;;;;5070678;28;20038;-72
2022/09/08 02:32:09;;;;;;;12.00;2.72;;;16.90;86.60;;;;;;5070402;28;20020;-73
2022/09/08 02:34:35;;;;;;;15.73;3.40;;;16.90;86.60;;;;;;5070414;28;20035;-72
2022/09/08 02:37:02;;;;;;;10.55;3.50;;;16.90;86.70;;;;;;5068288;28;20035;-71
2022/09/08 02:39:28;;;;;;;14.38;2.80;;;16.90;86.80;;;;;;5069841;28;20572;-70
2022/09/08 02:41:55;;;;;;;8.75;2.35;;;16.80;86.80;;;;;;5070068;28;20040;-72
2022/09/08 02:44:22;;;;;;;6.32;2.53;;;16.90;86.70;;;;;;5069950;28;20115;-72
2022/09/08 02:46:48;;;;;;;11.90;2.80;;;16.80;86.60;;;;;;5073983;28;20020;-72
2022/09/08 02:49:15;;;;;;;9.00;2.28;;;16.80;86.60;;;;;;5071179;28;20028;-73
2022/09/08 02:51:41;;;;;;;5.53;2.30;;;16.80;86.60;;;;;;5069339;28;20541;-73
2022/09/08 02:54:08;;;;;;;10.65;2.55;;;16.80;86.60;;;;;;5070716;28;20483;-72
2022/09/08 02:56:35;;;;;;;13.20;2.83;;;16.80;86.70;;;;;;5070880;28;20040;-74
2022/09/08 02:59:01;;;;;;;12.07;3.72;;;16.80;87.10;;;;;;5069331;28;20119;-72
2022/09/08 03:01:28;;;;;;;12.20;2.75;;;16.90;87.50;;;;;;5071247;28;20040;-71
2022/09/08 03:03:54;;;;;;;13.80;3.10;;;16.90;87.60;;;;;;5071377;28;20028;-71
2022/09/08 03:06:21;;;;;;;19.55;3.38;;;16.90;87.40;;;;;;5070727;28;20479;-73
2022/09/08 03:08:47;;;;;;;11.88;1.83;;;16.80;87.10;;;;;;5057384;28;20028;-72
2022/09/08 03:11:15;;;;;;;9.48;3.45;;;16.80;87.00;;;;;;5068524;28;20024;-72
2022/09/08 03:13:42;;;;;;;7.65;2.15;;;16.80;87.60;;;;;;5071303;28;20025;-72
2022/09/08 03:16:09;;;;;;;10.13;2.42;;;16.80;87.00;;;;;;5068577;28;20109;-71
2022/09/08 03:18:35;;;;;;;8.80;2.20;;;16.70;86.90;;;;;;5070869;28;20024;-72
2022/09/08 03:21:05;;;;;;;11.38;2.33;;;16.80;87.00;;;;;;5070580;28;20175;-72
2022/09/08 03:23:33;;;;;;;13.98;3.22;;;16.70;87.00;;;;;;5068133;28;20048;-71
2022/09/08 03:26:10;;;;;;;13.65;2.95;;;16.70;87.00;;;;;;5069978;28;20067;-73
2022/09/08 03:28:38;;;;;;;10.52;3.25;;;16.70;86.90;;;;;;5069647;28;20051;-72
2022/09/08 03:31:12;;;;;;;10.25;2.55;;;16.70;87.30;;;;;;5069616;28;20450;-70
2022/09/08 03:33:39;;;;;;;7.55;2.80;;;16.70;86.90;;;;;;5068538;28;20040;-71
2022/09/08 03:36:45;;;;;;;10.80;1.98;;;16.60;86.80;;;;;;5069437;28;20017;-68
2022/09/08 03:39:51;;;;;;;11.57;2.78;;;16.70;86.90;;;;;;5070078;28;20033;-69
2022/09/08 03:42:57;;;;;;;11.50;2.75;;;16.70;87.00;;;;;;5066368;28;20535;-72
2022/09/08 03:45:24;;;;;;;13.93;2.90;;;16.60;86.80;;;;;;5067770;28;20039;-71
2022/09/08 03:47:50;;;;;;;6.55;1.90;;;16.60;87.40;;;;;;5069679;28;20016;-72
2022/09/08 03:50:17;;;;;;;14.52;2.88;;;16.70;86.90;;;;;;5067617;28;20028;-72
2022/09/08 03:52:44;;;;;;;7.65;1.80;;;16.70;86.80;;;;;;5068108;28;20036;-72
2022/09/08 03:55:11;;;;;;;14.25;2.30;;;16.60;86.70;;;;;;5069451;28;20025;-71
2022/09/08 03:57:38;;;;;;;13.23;2.83;;;16.60;86.70;;;;;;5070649;28;20009;-71
2022/09/08 04:00:08;;;;;;;8.10;2.33;;;16.60;86.60;;;;;;5067776;28;20121;-71
2022/09/08 04:02:35;;;;;;;11.52;3.03;;;16.60;86.60;;;;;;5069122;28;20476;-72
2022/09/08 04:05:02;;;;;;;7.97;3.28;;;16.60;86.70;;;;;;5069451;28;20039;-74
2022/09/08 04:07:30;;;;;;;12.30;2.70;;;16.60;86.70;;;;;;5067048;28;21187;-69
2022/09/08 04:09:57;;;;;;;18.63;5.38;;;16.50;86.80;;;;;;5067908;28;20542;-69
2022/09/08 04:12:27;;;;;;;17.50;7.65;;;16.60;87.30;;;;;;5067166;28;20150;-69
2022/09/08 04:14:53;;;;;;;13.02;3.47;;;16.60;87.60;;;;;;5067058;28;20071;-66
2022/09/08 04:17:21;;;;;;;13.23;2.97;;;16.60;87.10;;;;;;5067728;28;20035;-69
2022/09/08 04:19:50;;;;;;;14.45;3.17;;;16.50;86.90;;;;;;5067282;28;20530;-69
2022/09/08 04:22:21;;;;;;;11.93;2.83;;;16.50;87.60;;;;;;5066904;28;20495;-69
2022/09/08 04:24:48;;;;;;;9.75;3.03;;;16.50;87.90;;;;;;5064764;28;20105;-70
2022/09/08 04:27:16;;;;;;;10.18;2.50;;;16.50;87.90;;;;;;5057647;28;20458;-69
2022/09/08 04:29:42;;;;;;;4.90;1.50;;;16.50;87.90;;;;;;5071721;28;20027;-71
2022/09/08 04:32:09;;;;;;;11.68;2.35;;;16.50;87.90;;;;;;5076449;28;20024;-70
2022/09/08 04:34:37;;;;;;;9.55;2.17;;;16.50;87.80;;;;;;5072380;28;20028;-71
2022/09/08 04:37:04;;;;;;;18.65;8.32;;;16.50;87.70;;;;;;5074497;28;20028;-69
2022/09/08 04:39:31;;;;;;;13.60;5.70;;;16.50;87.70;;;;;;5073926;28;20020;-69
2022/09/08 04:41:58;;;;;;;16.90;3.58;;;16.50;87.80;;;;;;5070831;28;20142;-71
2022/09/08 04:44:25;;;;;;;14.45;3.53;;;16.50;87.80;;;;;;5074161;28;20102;-70
2022/09/08 04:46:51;;;;;;;10.25;2.67;;;16.50;88.60;;;;;;5070966;28;20024;-70
2022/09/08 04:49:18;;;;;;;13.00;3.00;;;16.50;88.00;;;;;;5072404;28;20407;-71
2022/09/08 04:51:45;;;;;;;7.68;2.38;;;16.50;87.90;;;;;;5073107;28;20024;-70
2022/09/08 04:54:12;;;;;;;12.23;2.22;;;16.50;87.80;;;;;;5071893;28;20017;-70
2022/09/08 04:56:38;;;;;;;8.32;2.55;;;16.50;87.60;;;;;;5072897;28;20024;-70
2022/09/08 04:59:05;;;;;;;9.02;2.03;;;16.40;87.50;;;;;;5073336;28;21626;-70
2022/09/08 05:01:35;;;;;;;9.68;3.08;;;16.40;87.50;;;;;;5072452;28;20036;-70
2022/09/08 05:04:03;;;;;;;6.25;2.28;;;16.40;87.30;;;;;;5070666;28;20024;-70
2022/09/08 05:06:31;;;;;;;5.88;2.80;;;16.40;87.40;;;;;;5074908;28;20429;-71
2022/09/08 05:08:59;;;;;;;9.45;2.55;;;16.40;87.30;;;;;;5073206;28;20021;-70
2022/09/08 05:11:28;;;;;;;8.57;2.65;;;16.40;87.30;;;;;;5072072;28;20025;-70
2022/09/08 05:13:55;;;;;;;9.65;2.72;;;16.40;87.20;;;;;;5071613;28;20021;-69
2022/09/08 05:16:24;;;;;;;5.72;2.25;;;16.40;87.20;;;;;;5068842;28;20033;-70
2022/09/08 05:18:54;;;;;;;12.45;2.33;;;16.40;87.10;;;;;;5074011;28;20025;-70
2022/09/08 05:21:21;;;;;;;7.82;2.45;;;16.40;87.10;;;;;;5070487;28;20049;-71
2022/09/08 05:23:52;;;;;;;13.38;2.72;;;16.40;87.10;;;;;;5072865;28;20025;-70
2022/09/08 05:26:20;;;;;;;11.82;3.50;;;16.40;87.00;;;;;;5072131;28;20086;-69
2022/09/08 05:28:47;;;;;;;8.90;2.60;;;16.40;87.10;;;;;;5074901;28;20472;-70
2022/09/08 05:31:17;;;;;;;10.27;2.67;;;16.40;87.20;;;;;;5071004;28;20060;-69
2022/09/08 05:33:43;;;;;;;4.53;2.03;;;16.40;87.20;;;;;;5072212;28;20047;-70
2022/09/08 05:36:16;;;;;;;8.70;3.28;;;16.40;87.20;;;;;;5075018;28;20025;-70
2022/09/08 05:38:44;;;;;;;13.75;2.30;;;16.40;87.20;;;;;;5070976;28;20035;-70
2022/09/08 05:41:12;;;;;;;4.47;2.55;;;16.40;87.20;;;;;;5066810;28;20044;-69
2022/09/08 05:43:39;;;;;;;7.28;2.08;;;16.40;87.10;;;;;;5072199;28;20465;-70
2022/09/08 05:46:06;;;;;;;10.52;2.50;;;16.40;87.10;;;;;;5072750;28;20525;-69
2022/09/08 05:48:32;;;;;;;8.02;2.30;;;16.40;86.90;;;;;;5073388;28;20021;-69
2022/09/08 05:50:59;;;;;;;10.07;2.47;;;16.40;86.90;;;;;;5070917;28;20030;-70
2022/09/08 05:53:27;;;;;;;14.18;2.88;;;16.40;86.90;;;;;;5074681;28;20032;-70
2022/09/08 05:55:59;;;;;;;8.50;3.70;;;16.30;86.90;;;;;;5072721;28;20013;-70
2022/09/08 05:58:27;;;;;;;10.30;2.38;;;16.40;87.00;;;;;;5071643;28;20058;-70
2022/09/08 06:01:07;;;;;;;4.53;2.20;;;16.40;87.10;;;;;;5071332;28;20120;-71
2022/09/08 08:39:21;;;;;;;11.35;2.88;;;17.70;83.80;;;;;;6160338;23;20021;-69
2022/09/08 08:42:24;;;;;;;9.23;2.80;;;17.80;84.00;;;;;;6159723;23;20032;-69
2022/09/08 08:45:08;;;;;;;6.30;2.28;;;17.90;83.60;;;;;;6158625;23;20001;-70
2022/09/08 08:48:20;;;;;;;6.68;2.75;;;18.00;83.30;;;;;;6160002;23;20016;-70
2022/09/08 08:50:49;;;;;;;7.57;2.20;;;18.00;82.70;;;;;;6160282;23;20012;-70
2022/09/08 08:53:25;;;;;;;5.13;1.80;;;18.10;82.60;;;;;;6158586;23;20381;-69
2022/09/08 08:56:10;;;;;;;6.32;2.17;;;18.20;82.10;;;;;;6159848;23;20065;-69
2022/09/08 08:59:13;;;;;;;6.90;2.28;;;18.20;81.50;;;;;;6158988;23;20012;-69
2022/09/08 09:01:45;;;;;;;4.10;1.73;;;18.30;81.20;;;;;;6158877;23;20367;-69
2022/09/08 09:04:34;;;;;;;8.18;2.30;;;18.30;81.00;;;;;;6160425;23;20076;-69
2022/09/08 09:07:34;;;;;;;11.63;3.30;;;18.40;80.70;;;;;;6158349;23;20451;-70
2022/09/08 09:10:19;;;;;;;6.35;2.72;;;18.40;80.30;;;;;;6158901;23;20063;-68
2022/09/08 09:13:13;;;;;;;6.03;3.42;;;18.50;80.00;;;;;;6159659;23;20080;-69
2022/09/08 09:16:07;;;;;;;8.82;2.70;;;18.50;79.60;;;;;;6158234;23;20005;-69
2022/09/08 09:18:42;;;;;;;5.57;1.80;;;18.50;79.20;;;;;;6153569;23;20002;-68
2022/09/08 09:21:08;;;;;;;8.13;4.03;;;18.50;78.90;;;;;;6153391;23;20044;-69
2022/09/08 09:23:57;;;;;;;11.75;2.25;;;18.50;78.90;;;;;;6151823;23;20365;-68
2022/09/08 09:26:29;;;;;;;6.70;2.35;;;18.60;79.00;;;;;;6153262;23;20092;-69
2022/09/08 09:29:04;;;;;;;5.15;3.20;;;18.70;78.70;;;;;;6151976;23;20541;-70
2022/09/08 09:32:05;;;;;;;11.80;2.20;;;18.70;78.70;;;;;;6153033;23;20674;-69
2022/09/08 09:34:34;;;;;;;8.63;3.70;;;18.70;78.50;;;;;;6152842;23;20005;-69
2022/09/08 09:37:45;;;;;;;12.82;2.63;;;18.80;78.30;;;;;;6151508;23;20009;-69
2022/09/08 09:40:44;;;;;;;5.47;2.30;;;18.80;78.10;;;;;;6096328;23;20013;-69
2022/09/08 09:43:37;;;;;;;17.00;3.20;;;18.80;78.10;;;;;;6152343;23;20061;-69
2022/09/08 09:46:25;;;;;;;4.65;2.28;;;18.90;77.70;;;;;;6152036;23;20024;-69
2022/09/08 09:48:57;;;;;;;5.18;3.17;;;18.90;77.50;;;;;;6151944;23;20017;-69
2022/09/08 09:51:59;;;;;;;7.10;2.10;;;18.90;77.30;;;;;;6152961;23;20006;-69
2022/09/08 09:54:39;;;;;;;7.88;1.70;;;18.90;77.20;;;;;;6096286;23;20016;-68
2022/09/08 09:57:48;;;;;;;8.52;3.03;;;19.00;77.10;;;;;;6152702;23;20029;-69
2022/09/08 10:00:23;;;;;;;14.57;2.63;;;19.00;77.00;;;;;;6152889;23;20009;-69
2022/09/08 10:03:08;;;;;;;8.18;2.20;;;19.00;77.10;;;;;;6151645;23;20009;-68
2022/09/08 10:06:07;;;;;;;8.60;1.95;;;19.10;77.40;;;;;;6153165;23;20364;-69
2022/09/08 10:09:02;;;;;;;10.10;3.28;;;19.10;77.30;;;;;;6152517;23;20091;-70
2022/09/08 10:12:01;;;;;;;8.05;2.17;;;19.20;77.00;;;;;;6151061;23;20015;-70
2022/09/08 10:15:01;;;;;;;5.93;1.80;;;19.30;76.70;;;;;;6152373;23;20013;-69
2022/09/08 10:17:49;;;;;;;7.18;1.98;;;19.30;76.60;;;;;;6152737;23;20010;-69
2022/09/08 10:20:18;;;;;;;3.75;1.83;;;19.30;76.40;;;;;;6150993;23;20005;-70
2022/09/08 10:23:00;;;;;;;7.22;2.13;;;19.40;76.20;;;;;;6152826;23;20013;-69
2022/09/08 10:26:22;;;;;;;3.83;1.85;;;19.40;76.10;;;;;;6151784;23;20024;-68
2022/09/08 10:29:10;;;;;;;8.52;2.65;;;19.50;76.10;;;;;;5961071;23;20036;-70
2022/09/08 10:32:04;;;;;;;7.32;1.73;;;19.60;76.00;;;;;;6152462;23;20073;-68
2022/09/08 10:34:40;;;;;;;5.32;1.90;;;19.60;75.70;;;;;;6152202;23;20002;-70
2022/09/08 10:37:12;;;;;;;11.90;3.40;;;19.60;75.50;;;;;;6151238;23;20014;-68
2022/09/08 10:40:14;;;;;;;10.23;2.17;;;19.70;75.50;;;;;;6151990;23;20385;-70
2022/09/08 10:42:48;;;;;;;5.97;1.90;;;19.70;75.50;;;;;;6132463;23;20033;-69
2022/09/08 10:45:14;;;;;;;9.70;2.28;;;19.80;75.20;;;;;;6151588;23;20005;-69
2022/09/08 10:47:56;;;;;;;5.78;2.08;;;19.80;74.80;;;;;;6152102;23;20001;-69
2022/09/08 10:50:31;;;;;;;5.93;1.90;;;19.80;74.60;;;;;;6151061;23;20096;-69
2022/09/08 10:53:38;;;;;;;11.02;2.20;;;19.90;74.60;;;;;;6152370;23;20056;-68
2022/09/08 10:56:07;;;;;;;8.30;2.25;;;19.90;74.80;;;;;;6152242;23;20006;-69
2022/09/08 10:58:54;;;;;;;7.32;2.17;;;19.90;74.90;;;;;;6150866;23;20029;-71
2022/09/08 11:01:54;;;;;;;5.93;1.88;;;20.00;75.00;;;;;;6151915;23;20005;-69
2022/09/08 11:05:20;;;;;;;8.07;2.05;;;20.00;74.90;;;;;;6151782;23;20433;-70
2022/09/08 11:07:55;;;;;;;6.93;1.98;;;20.10;74.80;;;;;;6003465;23;20051;-69
2022/09/08 11:10:53;;;;;;;4.75;2.85;;;20.10;74.60;;;;;;6152324;23;20125;-69
2022/09/08 11:13:38;;;;;;;6.63;3.03;;;20.10;74.60;;;;;;6071680;23;20044;-70
2022/09/08 11:16:44;;;;;;;5.88;1.60;;;20.20;74.40;;;;;;6150683;23;20005;-69
2022/09/08 11:19:19;;;;;;;8.77;1.90;;;20.20;74.10;;;;;;6151816;23;20005;-69
2022/09/08 11:22:10;;;;;;;3.65;1.45;;;20.20;73.90;;;;;;6151366;23;20232;-69
2022/09/08 11:25:12;;;;;;;4.15;1.42;;;20.30;73.70;;;;;;6150634;23;20009;-69
2022/09/08 11:28:26;;;;;;;4.93;1.77;;;20.30;73.60;;;;;;6152168;23;20013;-69
2022/09/08 11:30:53;;;;;;;7.05;1.58;;;20.30;73.20;;;;;;6120610;23;20013;-70
2022/09/08 11:33:48;;;;;;;9.45;2.17;;;20.30;72.90;;;;;;6150385;23;20114;-69
2022/09/08 11:36:42;;;;;;;6.38;1.90;;;20.40;72.70;;;;;;6135979;23;20444;-69
2022/09/08 11:39:39;;;;;;;7.57;1.77;;;20.40;72.50;;;;;;6151191;23;20013;-70
2022/09/08 11:42:17;;;;;;;3.20;1.55;;;20.40;72.20;;;;;;6020836;23;20015;-69
2022/09/08 11:45:15;;;;;;;7.65;1.90;;;20.40;72.10;;;;;;6151623;23;20072;-69
2022/09/08 11:48:04;;;;;;;2.80;1.13;;;20.40;71.90;;;;;;6151298;23;20025;-68
2022/09/08 11:50:34;;;;;;;6.20;3.13;;;20.50;71.50;;;;;;6150412;23;20009;-70
2022/09/08 11:53:00;;;;;;;5.45;1.95;;;20.50;71.50;;;;;;6150762;23;20006;-68
2022/09/08 11:55:59;;;;;;;7.32;1.63;;;20.50;71.70;;;;;;6149656;23;20020;-71
2022/09/08 11:58:57;;;;;;;5.07;1.85;;;20.50;71.90;;;;;;6149300;23;20011;-69
2022/09/08 12:01:42;;;;;;;11.75;2.80;;;20.60;71.80;;;;;;6147928;23;20012;-71
2022/09/08 12:04:21;;;;;;;5.50;1.93;;;20.70;71.50;;;;;;6149831;23;20033;-70
2022/09/08 12:07:26;;;;;;;5.15;1.48;;;20.70;71.10;;;;;;6151085;23;20591;-69
2022/09/08 12:10:54;;;;;;;6.75;1.58;;;20.70;70.90;;;;;;6149814;23;20072;-69
2022/09/08 12:13:38;;;;;;;4.85;1.50;;;20.70;71.10;;;;;;6030544;23;20015;-69
2022/09/08 12:16:50;;;;;;;5.50;2.03;;;20.70;70.60;;;;;;6141225;23;20006;-71
2022/09/08 12:19:55;;;;;;;4.60;1.38;;;20.80;70.40;;;;;;6149428;23;20088;-70
2022/09/08 12:22:31;;;;;;;5.05;1.50;;;20.80;70.40;;;;;;6149738;23;20005;-69
2022/09/08 12:25:32;;;;;;;9.52;2.05;;;20.80;70.20;;;;;;6149885;23;20004;-69
2022/09/08 12:28:17;;;;;;;3.75;1.17;;;20.80;70.00;;;;;;6151206;23;20018;-69
2022/09/08 12:31:12;;;;;;;3.88;1.55;;;20.80;69.80;;;;;;6149825;23;20013;-69
2022/09/08 12:34:29;;;;;;;4.55;1.50;;;20.80;69.90;;;;;;6143717;23;20010;-68
2022/09/08 12:37:27;;;;;;;3.45;2.15;;;20.90;70.30;;;;;;6150969;23;20333;-69
2022/09/08 12:40:31;;;;;;;5.72;1.65;;;20.90;70.30;;;;;;6138529;23;20063;-69
2022/09/08 12:44:01;;;;;;;3.58;1.85;;;20.90;70.10;;;;;;6149631;23;20001;-70
2022/09/08 12:47:24;;;;;;;5.07;1.50;;;20.90;70.00;;;;;;6150146;23;20088;-69
2022/09/08 12:50:25;;;;;;;6.28;1.67;;;20.90;70.00;;;;;;6145983;23;20009;-69
2022/09/08 12:53:30;;;;;;;4.20;1.52;;;20.90;70.30;;;;;;6074246;23;20013;-68
2022/09/08 12:56:29;;;;;;;10.32;2.88;;;20.90;70.30;;;;;;6151498;23;19998;-68
2022/09/08 12:59:28;;;;;;;5.85;1.48;;;20.90;70.00;;;;;;6140170;23;20322;-69
2022/09/08 13:02:22;;;;;;;7.00;1.75;;;20.90;69.90;;;;;;6152646;23;20041;-69
2022/09/08 13:05:15;;;;;;;4.68;1.40;;;20.90;69.80;;;;;;6151532;23;20084;-69
2022/09/08 13:07:58;;;;;;;4.60;1.42;;;20.90;69.80;;;;;;6152786;23;20058;-68
2022/09/08 13:10:34;;;;;;;4.82;1.20;;;20.90;69.90;;;;;;6153109;23;20001;-68
2022/09/08 13:13:09;;;;;;;6.93;2.00;;;20.90;70.00;;;;;;6151957;23;20089;-69
2022/09/08 13:15:40;;;;;;;3.65;1.50;;;20.90;69.90;;;;;;6153036;23;20032;-72
2022/09/08 13:18:20;;;;;;;5.53;1.42;;;20.90;69.90;;;;;;6151146;23;20004;-69
2022/09/08 13:20:56;;;;;;;7.22;1.60;;;20.90;69.80;;;;;;6152131;23;20028;-69
2022/09/08 13:23:30;;;;;;;5.20;1.45;;;20.90;69.70;;;;;;6152170;23;20033;-70
2022/09/08 13:26:28;;;;;;;6.87;1.40;;;20.90;69.60;;;;;;6150938;23;20420;-69
2022/09/08 13:29:03;;;;;;;2.95;1.05;;;20.90;69.60;;;;;;6095542;23;20037;-68
2022/09/08 13:32:02;;;;;;;6.03;2.83;;;20.90;69.70;;;;;;6152154;23;20001;-69
2022/09/08 13:34:41;;;;;;;4.50;1.60;;;20.90;69.80;;;;;;6151445;23;20028;-71
2022/09/08 13:37:10;;;;;;;3.75;1.35;;;20.90;70.50;;;;;;6152394;23;20052;-69
2022/09/08 13:39:48;;;;;;;7.53;1.83;;;20.90;69.70;;;;;;6151041;23;20001;-69
2022/09/08 13:42:42;;;;;;;4.72;1.30;;;20.90;69.30;;;;;;6152301;23;20009;-69
2022/09/08 13:45:18;;;;;;;4.95;1.30;;;20.90;69.30;;;;;;6152831;23;20084;-71
2022/09/08 13:47:54;;;;;;;7.82;2.70;;;20.90;69.00;;;;;;6151303;23;20088;-70
2022/09/08 13:51:13;;;;;;;5.50;1.48;;;20.90;68.80;;;;;;6152430;23;20014;-69
2022/09/08 13:53:49;;;;;;;4.43;1.15;;;20.90;68.70;;;;;;6005094;23;20016;-69
2022/09/08 13:56:35;;;;;;;4.50;1.58;;;20.90;68.50;;;;;;6003583;23;20043;-69
2022/09/08 13:59:10;;;;;;;2.55;0.80;;;20.80;68.40;;;;;;6119621;23;20001;-69
2022/09/08 14:01:41;;;;;;;4.60;1.85;;;20.80;68.40;;;;;;6151520;23;20069;-69
2022/09/08 14:04:13;;;;;;;5.68;1.10;;;20.80;68.50;;;;;;6151649;23;20373;-68
2022/09/08 16:32:14;;;;;;;5.18;1.92;;;19.00;75.00;;;;;;5047919;28;20402;-70
2022/09/08 16:35:05;;;;;;;6.55;1.42;;;19.10;76.40;;;;;;5028991;28;20048;-70
2022/09/08 16:37:46;;;;;;;5.45;2.08;;;19.10;76.10;;;;;;5026672;28;20045;-69
2022/09/08 16:40:16;;;;;;;4.88;2.47;;;19.10;75.90;;;;;;5035629;28;20041;-69
2022/09/08 16:42:48;;;;;;;9.18;3.50;;;19.10;75.90;;;;;;5031485;28;20032;-70
2022/09/08 16:45:32;;;;;;;4.80;1.63;;;19.10;76.50;;;;;;5030038;28;20013;-73
2022/09/08 16:48:14;;;;;;;4.22;1.92;;;19.10;75.90;;;;;;5030504;28;20485;-73
2022/09/08 16:51:01;;;;;;;5.22;2.00;;;19.10;75.60;;;;;;5008360;28;20384;-70
2022/09/08 16:53:49;;;;;;;4.90;2.22;;;19.10;75.60;;;;;;5034848;28;20022;-73
2022/09/08 16:56:24;;;;;;;4.38;1.80;;;19.10;76.10;;;;;;5029444;28;20026;-74
2022/09/08 16:59:17;;;;;;;3.58;2.28;;;19.10;75.40;;;;;;5032045;28;20017;-72
2022/09/08 17:01:56;;;;;;;4.63;1.65;;;19.10;75.40;;;;;;5020929;28;20040;-69
2022/09/08 17:04:51;;;;;;;10.13;2.20;;;19.10;75.60;;;;;;5030518;28;20022;-71
2022/09/08 17:07:35;;;;;;;9.73;2.25;;;19.00;75.90;;;;;;5027488;28;20051;-71
2022/09/08 17:10:12;;;;;;;8.95;2.15;;;19.00;76.90;;;;;;5027686;28;20056;-70
2022/09/08 17:12:43;;;;;;;9.23;1.60;;;19.00;76.70;;;;;;5031931;28;20106;-70
2022/09/08 17:15:10;;;;;;;5.47;2.00;;;19.00;76.60;;;;;;5030529;28;20161;-73
2022/09/08 17:18:05;;;;;;;7.97;2.35;;;18.90;76.60;;;;;;5031571;28;20384;-69
2022/09/08 17:20:34;;;;;;;3.50;2.17;;;18.90;76.50;;;;;;5030272;28;20040;-73
2022/09/08 17:23:32;;;;;;;5.28;1.92;;;18.90;76.60;;;;;;5034287;28;20036;-73
2022/09/08 17:26:29;;;;;;;11.77;3.80;;;18.90;76.70;;;;;;5030969;28;20036;-74
2022/09/08 17:29:10;;;;;;;11.13;4.05;;;18.90;77.50;;;;;;5025722;28;20036;-71
2022/09/08 17:31:39;;;;;;;8.48;2.50;;;18.80;78.30;;;;;;5024086;28;20493;-73
2022/09/08 17:34:19;;;;;;;21.42;6.20;;;18.90;78.90;;;;;;5018617;28;20104;-77
2022/09/08 17:36:58;;;;;;;15.07;6.05;;;18.90;79.20;;;;;;5018966;28;20034;-73
2022/09/08 17:39:42;;;;;;;15.05;4.47;;;18.80;79.30;;;;;;5015974;28;20095;-71
2022/09/08 17:42:33;;;;;;;12.50;3.03;;;18.80;79.40;;;;;;5014491;28;20032;-77
2022/09/08 17:45:07;;;;;;;31.40;19.48;;;18.80;79.30;;;;;;5020450;28;20041;-71
2022/09/08 17:48:03;;;;;;;18.55;13.68;;;18.80;79.60;;;;;;5018927;28;20037;-71
2022/09/08 17:50:38;;;;;;;13.25;6.07;;;18.80;79.70;;;;;;5015113;28;20354;-73
2022/09/08 17:53:46;;;;;;;6.38;3.97;;;18.80;79.20;;;;;;5014821;28;20061;-72
2022/09/08 17:56:51;;;;;;;9.40;4.93;;;18.80;78.90;;;;;;4990728;28;20022;-75
2022/09/08 18:00:06;;;;;;;8.48;3.75;;;18.70;78.60;;;;;;5018653;28;20037;-76
2022/09/08 18:02:54;;;;;;;8.23;2.60;;;18.70;78.40;;;;;;5018902;28;20033;-73
2022/09/08 18:05:25;;;;;;;9.32;2.95;;;18.70;78.60;;;;;;5018090;28;20030;-72
2022/09/08 18:07:59;;;;;;;10.82;2.47;;;18.70;79.10;;;;;;5016765;28;20041;-73
2022/09/08 18:10:55;;;;;;;6.45;2.60;;;18.70;79.30;;;;;;5017034;28;20064;-71
2022/09/08 18:13:57;;;;;;;4.40;2.75;;;18.70;79.10;;;;;;5016621;28;20041;-76
2022/09/08 18:16:40;;;;;;;4.82;2.47;;;18.60;78.80;;;;;;5003043;28;20041;-75
2022/09/08 18:19:12;;;;;;;9.18;6.50;;;18.60;78.60;;;;;;5016530;28;20045;-78
2022/09/08 18:21:47;;;;;;;12.23;7.78;;;18.60;78.70;;;;;;5016682;28;20557;-71
2022/09/08 18:24:25;;;;;;;9.50;7.28;;;18.60;78.90;;;;;;5017381;28;20164;-77
2022/09/08 18:26:57;;;;;;;11.77;4.93;;;18.60;78.80;;;;;;5013624;28;20030;-75
2022/09/08 18:29:31;;;;;;;9.45;3.28;;;18.60;79.10;;;;;;5014719;28;20044;-73
2022/09/08 18:32:17;;;;;;;5.35;2.47;;;18.60;79.20;;;;;;5016783;28;20049;-77
2022/09/08 18:34:59;;;;;;;;;;;18.50;79.30;;;;;;5012738;28;20099;-78
2022/09/08 18:37:27;;;;;;;5.40;1.73;;;18.60;79.50;;;;;;5018534;28;19909;-75
2022/09/08 18:40:11;;;;;;;15.25;6.10;;;18.60;79.40;;;;;;5013889;28;20148;-72
2022/09/08 18:43:09;;;;;;;11.85;6.10;;;18.50;79.40;;;;;;5011447;28;20045;-77
2022/09/08 18:45:55;;;;;;;10.20;5.63;;;18.50;79.40;;;;;;5018227;28;20022;-76
2022/09/08 18:49:07;;;;;;;4.82;4.30;;;18.50;79.50;;;;;;5014686;28;20064;-75
2022/09/08 18:51:53;;;;;;;12.63;3.25;;;18.50;79.40;;;;;;4971098;28;20172;-75